EWG1VH LOWS-EDDH
Flight info
| Callsign | EWG1VH |
|---|---|
| Flight time | 1h 1m |
| Altitude | 38000 |
| Route | INROM DCT SIMBA Y700 NENUM DCT EPTEU DCT RUDNO M736 AKOSI DCT ALOSO DCT KENIG DCT ABGUS DCT DIRBO T902 RARUP |
| Aircraft | A320/M-SDE3FGHIRWY/LB1 |
Departure
| Time | 2026-05-05 12:24 |
|---|---|
| Airport | Salzburg Airport (LOWS) |
Arrival
| Time | 2026-05-05 13:25 |
|---|---|
| Airport | Hamburg Helmut Schmidt Airport (EDDH) |
| Time | Latitude | Longitude | Altitude | Speed | Heading |
|---|---|---|---|---|---|
| 2026-05-05 12:04 | 47.79285 | 13.00061 | 1420 ft | 0 kts | 102° |
| 2026-05-05 12:18 | 47.79280 | 13.00062 | 1420 ft | 1 kts | 161° |
| 2026-05-05 12:19 | 47.79245 | 13.00053 | 1420 ft | 9 kts | 188° |
| 2026-05-05 12:19 | 47.79172 | 13.00038 | 1420 ft | 10 kts | 186° |
| 2026-05-05 12:19 | 47.79110 | 13.00058 | 1422 ft | 8 kts | 156° |
| 2026-05-05 12:19 | 47.79055 | 13.00093 | 1420 ft | 10 kts | 156° |
| 2026-05-05 12:20 | 47.78985 | 13.00138 | 1420 ft | 10 kts | 154° |
| 2026-05-05 12:20 | 47.78956 | 13.00219 | 1420 ft | 8 kts | 94° |
| 2026-05-05 12:20 | 47.78953 | 13.00298 | 1420 ft | 7 kts | 92° |
| 2026-05-05 12:20 | 47.78927 | 13.00383 | 1420 ft | 13 kts | 150° |
| 2026-05-05 12:21 | 47.78827 | 13.00445 | 1420 ft | 16 kts | 157° |
| 2026-05-05 12:21 | 47.78719 | 13.00513 | 1420 ft | 18 kts | 157° |
| 2026-05-05 12:21 | 47.78601 | 13.00590 | 1422 ft | 19 kts | 157° |
| 2026-05-05 12:21 | 47.78476 | 13.00669 | 1421 ft | 20 kts | 157° |
| 2026-05-05 12:22 | 47.78344 | 13.00753 | 1420 ft | 16 kts | 157° |
| 2026-05-05 12:22 | 47.78250 | 13.00815 | 1420 ft | 15 kts | 152° |
| 2026-05-05 12:22 | 47.78183 | 13.00930 | 1422 ft | 16 kts | 102° |
| 2026-05-05 12:22 | 47.78203 | 13.01050 | 1418 ft | 10 kts | 64° |
| 2026-05-05 12:23 | 47.78221 | 13.01088 | 1421 ft | 2 kts | 29° |
| 2026-05-05 12:23 | 47.78237 | 13.01086 | 1421 ft | 4 kts | 349° |
| 2026-05-05 12:23 | 47.78246 | 13.01080 | 1421 ft | 0 kts | 337° |
| 2026-05-05 12:23 | 47.78334 | 13.01024 | 1419 ft | 48 kts | 337° |
| 2026-05-05 12:24 | 47.78866 | 13.00689 | 1420 ft | 115 kts | 337° |
| 2026-05-05 12:24 | 47.79777 | 13.00111 | 1502 ft | 158 kts | 338° |
| 2026-05-05 12:24 | 47.80759 | 12.99489 | 2179 ft | 153 kts | 338° |
| 2026-05-05 12:24 | 47.81790 | 12.98980 | 2703 ft | 165 kts | 353° |
| 2026-05-05 12:25 | 47.83004 | 12.99255 | 2879 ft | 192 kts | 28° |
| 2026-05-05 12:25 | 47.84167 | 13.00474 | 3226 ft | 217 kts | 37° |
| 2026-05-05 12:25 | 47.85449 | 13.01887 | 3692 ft | 242 kts | 37° |
| 2026-05-05 12:25 | 47.86872 | 13.03438 | 4239 ft | 264 kts | 36° |
| 2026-05-05 12:26 | 47.88376 | 13.05068 | 5090 ft | 271 kts | 37° |
| 2026-05-05 12:26 | 47.89911 | 13.06731 | 5966 ft | 276 kts | 37° |
| 2026-05-05 12:26 | 47.91481 | 13.08432 | 6780 ft | 282 kts | 36° |
| 2026-05-05 12:26 | 47.93082 | 13.10166 | 7629 ft | 288 kts | 36° |
| 2026-05-05 12:27 | 47.94715 | 13.11932 | 8474 ft | 293 kts | 37° |
| 2026-05-05 12:27 | 47.96386 | 13.13741 | 9362 ft | 298 kts | 37° |
| 2026-05-05 12:27 | 47.98092 | 13.15524 | 10049 ft | 308 kts | 31° |
| 2026-05-05 12:27 | 48.00153 | 13.16781 | 10300 ft | 332 kts | 12° |
| 2026-05-05 12:28 | 48.02503 | 13.17018 | 10724 ft | 346 kts | 353° |
| 2026-05-05 12:28 | 48.04839 | 13.16138 | 11432 ft | 349 kts | 334° |
| 2026-05-05 12:28 | 48.07000 | 13.14478 | 12208 ft | 351 kts | 329° |
| 2026-05-05 12:28 | 48.09160 | 13.12745 | 12993 ft | 354 kts | 329° |
| 2026-05-05 12:29 | 48.11338 | 13.10993 | 13737 ft | 357 kts | 329° |
| 2026-05-05 12:29 | 48.13537 | 13.09225 | 14391 ft | 361 kts | 329° |
| 2026-05-05 12:29 | 48.15768 | 13.07432 | 15050 ft | 365 kts | 329° |
| 2026-05-05 12:29 | 48.18012 | 13.05624 | 15710 ft | 369 kts | 329° |
| 2026-05-05 12:30 | 48.20290 | 13.03791 | 16355 ft | 373 kts | 329° |
| 2026-05-05 12:30 | 48.22654 | 13.02121 | 16964 ft | 379 kts | 338° |
| 2026-05-05 12:30 | 48.25217 | 13.01092 | 17582 ft | 385 kts | 349° |
| 2026-05-05 12:30 | 48.27887 | 13.00505 | 18201 ft | 389 kts | 351° |
| 2026-05-05 12:31 | 48.30578 | 12.99922 | 18756 ft | 393 kts | 351° |
| 2026-05-05 12:31 | 48.33289 | 12.99331 | 19313 ft | 396 kts | 350° |
| 2026-05-05 12:31 | 48.36028 | 12.98728 | 19884 ft | 399 kts | 351° |
| 2026-05-05 12:31 | 48.38785 | 12.98118 | 20466 ft | 402 kts | 350° |
| 2026-05-05 12:32 | 48.41558 | 12.97504 | 21025 ft | 405 kts | 350° |
| 2026-05-05 12:32 | 48.44358 | 12.96883 | 21581 ft | 408 kts | 350° |
| 2026-05-05 12:32 | 48.47179 | 12.96258 | 22131 ft | 411 kts | 350° |
| 2026-05-05 12:32 | 48.50023 | 12.95630 | 22664 ft | 415 kts | 350° |
| 2026-05-05 12:33 | 48.52888 | 12.94996 | 23210 ft | 418 kts | 350° |
| 2026-05-05 12:33 | 48.55776 | 12.94353 | 23659 ft | 421 kts | 350° |
| 2026-05-05 12:33 | 48.58689 | 12.93712 | 24082 ft | 424 kts | 350° |
| 2026-05-05 12:33 | 48.61616 | 12.93075 | 24501 ft | 427 kts | 350° |
| 2026-05-05 12:34 | 48.64563 | 12.92440 | 24911 ft | 429 kts | 350° |
| 2026-05-05 12:34 | 48.67531 | 12.91799 | 25315 ft | 432 kts | 350° |
| 2026-05-05 12:34 | 48.70500 | 12.91153 | 25708 ft | 434 kts | 350° |
| 2026-05-05 12:34 | 48.73506 | 12.90498 | 26097 ft | 436 kts | 350° |
| 2026-05-05 12:35 | 48.76515 | 12.89842 | 26480 ft | 439 kts | 349° |
| 2026-05-05 12:35 | 48.79540 | 12.89178 | 26857 ft | 441 kts | 349° |
| 2026-05-05 12:35 | 48.82583 | 12.88504 | 27234 ft | 443 kts | 349° |
| 2026-05-05 12:35 | 48.85646 | 12.87825 | 27607 ft | 445 kts | 349° |
| 2026-05-05 12:36 | 48.88715 | 12.87143 | 27983 ft | 447 kts | 349° |
| 2026-05-05 12:36 | 48.91806 | 12.86459 | 28340 ft | 449 kts | 349° |
| 2026-05-05 12:36 | 48.94904 | 12.85776 | 28668 ft | 451 kts | 349° |
| 2026-05-05 12:36 | 48.98015 | 12.85092 | 29010 ft | 454 kts | 349° |
| 2026-05-05 12:37 | 49.01152 | 12.84402 | 29334 ft | 456 kts | 349° |
| 2026-05-05 12:37 | 49.04296 | 12.83710 | 29640 ft | 458 kts | 349° |
| 2026-05-05 12:37 | 49.07456 | 12.83006 | 29940 ft | 459 kts | 349° |
| 2026-05-05 12:37 | 49.10654 | 12.82236 | 30205 ft | 460 kts | 345° |
| 2026-05-05 12:38 | 49.13721 | 12.80875 | 30457 ft | 458 kts | 335° |
| 2026-05-05 12:38 | 49.16556 | 12.78845 | 30689 ft | 455 kts | 327° |
| 2026-05-05 12:38 | 49.19200 | 12.76121 | 30933 ft | 453 kts | 317° |
| 2026-05-05 12:38 | 49.21520 | 12.72877 | 31157 ft | 451 kts | 311° |
| 2026-05-05 12:39 | 49.23727 | 12.69479 | 31471 ft | 450 kts | 311° |
| 2026-05-05 12:39 | 49.25928 | 12.66076 | 31812 ft | 449 kts | 311° |
| 2026-05-05 12:39 | 49.28118 | 12.62677 | 32147 ft | 448 kts | 311° |
| 2026-05-05 12:39 | 49.30305 | 12.59273 | 32483 ft | 447 kts | 311° |
| 2026-05-05 12:40 | 49.32484 | 12.55882 | 32812 ft | 446 kts | 311° |
| 2026-05-05 12:40 | 49.34795 | 12.52682 | 33140 ft | 449 kts | 318° |
| 2026-05-05 12:40 | 49.37241 | 12.49721 | 33459 ft | 448 kts | 318° |
| 2026-05-05 12:40 | 49.39690 | 12.46748 | 33783 ft | 448 kts | 318° |
| 2026-05-05 12:41 | 49.42122 | 12.43793 | 34067 ft | 447 kts | 318° |
| 2026-05-05 12:41 | 49.44559 | 12.40827 | 34343 ft | 446 kts | 317° |
| 2026-05-05 12:41 | 49.46991 | 12.37853 | 34618 ft | 445 kts | 317° |
| 2026-05-05 12:41 | 49.49410 | 12.34894 | 34887 ft | 445 kts | 317° |
| 2026-05-05 12:42 | 49.51832 | 12.31934 | 35139 ft | 444 kts | 317° |
| 2026-05-05 12:42 | 49.54251 | 12.28973 | 35385 ft | 444 kts | 317° |
| 2026-05-05 12:42 | 49.56663 | 12.26012 | 35627 ft | 443 kts | 317° |
| 2026-05-05 12:42 | 49.59076 | 12.23048 | 35769 ft | 443 kts | 317° |
| 2026-05-05 12:43 | 49.63863 | 12.17166 | 35792 ft | 439 kts | 317° |
| 2026-05-05 12:43 | 49.68661 | 12.11358 | 35793 ft | 441 kts | 322° |
| 2026-05-05 12:44 | 49.74250 | 12.07317 | 35799 ft | 450 kts | 341° |
| 2026-05-05 12:44 | 49.80359 | 12.05015 | 35793 ft | 452 kts | 343° |
| 2026-05-05 12:45 | 49.86461 | 12.02714 | 35798 ft | 452 kts | 342° |
| 2026-05-05 12:45 | 49.92567 | 12.00390 | 35803 ft | 452 kts | 342° |
| 2026-05-05 12:46 | 49.98672 | 11.98064 | 35808 ft | 452 kts | 342° |
| 2026-05-05 12:46 | 50.04770 | 11.95737 | 35834 ft | 452 kts | 342° |
| 2026-05-05 12:47 | 50.10874 | 11.93392 | 35855 ft | 452 kts | 342° |
| 2026-05-05 12:47 | 50.16972 | 11.91061 | 35865 ft | 451 kts | 342° |
| 2026-05-05 12:48 | 50.23067 | 11.88716 | 35875 ft | 451 kts | 342° |
| 2026-05-05 12:48 | 50.29208 | 11.86347 | 35874 ft | 451 kts | 342° |
| 2026-05-05 12:49 | 50.35266 | 11.84012 | 35874 ft | 451 kts | 342° |
| 2026-05-05 12:49 | 50.40374 | 11.82034 | 35871 ft | 451 kts | 342° |
| 2026-05-05 12:50 | 50.46467 | 11.79664 | 35863 ft | 451 kts | 341° |
| 2026-05-05 12:50 | 50.52557 | 11.77292 | 35861 ft | 451 kts | 341° |
| 2026-05-05 12:51 | 50.58658 | 11.74912 | 35860 ft | 452 kts | 341° |
| 2026-05-05 12:51 | 50.64761 | 11.72524 | 35863 ft | 452 kts | 341° |
| 2026-05-05 12:52 | 50.70860 | 11.70130 | 35867 ft | 452 kts | 341° |
| 2026-05-05 12:52 | 50.76896 | 11.67464 | 35872 ft | 450 kts | 338° |
| 2026-05-05 12:53 | 50.82885 | 11.64532 | 35873 ft | 450 kts | 338° |
| 2026-05-05 12:53 | 50.88870 | 11.61612 | 35880 ft | 451 kts | 338° |
| 2026-05-05 12:54 | 50.97884 | 11.57330 | 35882 ft | 451 kts | 338° |
| 2026-05-05 12:55 | 51.03898 | 11.54481 | 35886 ft | 451 kts | 338° |
| 2026-05-05 12:55 | 51.09899 | 11.51624 | 35889 ft | 450 kts | 338° |
| 2026-05-05 12:56 | 51.15899 | 11.48756 | 35894 ft | 450 kts | 338° |
| 2026-05-05 12:56 | 51.21893 | 11.45872 | 35894 ft | 450 kts | 338° |
| 2026-05-05 12:57 | 51.27880 | 11.42979 | 35897 ft | 449 kts | 338° |
| 2026-05-05 12:57 | 51.33869 | 11.40104 | 35899 ft | 449 kts | 338° |
| 2026-05-05 12:58 | 51.39848 | 11.37220 | 35896 ft | 448 kts | 338° |
| 2026-05-05 12:58 | 51.45820 | 11.34329 | 35896 ft | 448 kts | 338° |
| 2026-05-05 12:59 | 51.51780 | 11.31421 | 35902 ft | 448 kts | 337° |
| 2026-05-05 12:59 | 51.57738 | 11.28509 | 35904 ft | 447 kts | 337° |
| 2026-05-05 13:00 | 51.63541 | 11.25128 | 35903 ft | 438 kts | 326° |
| 2026-05-05 13:00 | 51.66230 | 11.22843 | 35905 ft | 437 kts | 326° |
| 2026-05-05 13:01 | 51.76971 | 11.13667 | 35904 ft | 437 kts | 326° |
| 2026-05-05 13:01 | 51.82342 | 11.09086 | 35903 ft | 436 kts | 326° |
| 2026-05-05 13:02 | 51.87976 | 11.05280 | 35900 ft | 447 kts | 341° |
| 2026-05-05 13:02 | 51.94177 | 11.03750 | 35900 ft | 452 kts | 347° |
| 2026-05-05 13:03 | 52.00416 | 11.02431 | 35901 ft | 452 kts | 347° |
| 2026-05-05 13:03 | 52.06644 | 11.01102 | 35905 ft | 451 kts | 347° |
| 2026-05-05 13:04 | 52.12864 | 10.99764 | 35904 ft | 451 kts | 347° |
| 2026-05-05 13:04 | 52.19089 | 10.98422 | 35907 ft | 451 kts | 347° |
| 2026-05-05 13:05 | 52.25307 | 10.97080 | 35911 ft | 450 kts | 347° |
| 2026-05-05 13:05 | 52.31523 | 10.95740 | 35911 ft | 450 kts | 347° |
| 2026-05-05 13:06 | 52.37733 | 10.94399 | 35923 ft | 450 kts | 347° |
| 2026-05-05 13:06 | 52.40875 | 10.93718 | 35766 ft | 450 kts | 347° |
| 2026-05-05 13:06 | 52.43988 | 10.93038 | 34979 ft | 453 kts | 346° |
| 2026-05-05 13:07 | 52.47125 | 10.92348 | 34205 ft | 455 kts | 346° |
| 2026-05-05 13:07 | 52.50269 | 10.91657 | 33408 ft | 456 kts | 346° |
| 2026-05-05 13:07 | 52.53370 | 10.90976 | 32554 ft | 457 kts | 346° |
| 2026-05-05 13:07 | 52.56568 | 10.90277 | 31779 ft | 457 kts | 346° |
| 2026-05-05 13:08 | 52.59705 | 10.89597 | 31166 ft | 453 kts | 347° |
| 2026-05-05 13:08 | 52.62819 | 10.88923 | 30572 ft | 449 kts | 347° |
| 2026-05-05 13:08 | 52.65907 | 10.88252 | 29987 ft | 446 kts | 347° |
| 2026-05-05 13:08 | 52.68933 | 10.87591 | 29343 ft | 443 kts | 347° |
| 2026-05-05 13:09 | 52.72010 | 10.86916 | 28730 ft | 438 kts | 347° |
| 2026-05-05 13:09 | 52.75015 | 10.86253 | 28177 ft | 434 kts | 347° |
| 2026-05-05 13:09 | 52.77987 | 10.85595 | 27621 ft | 429 kts | 347° |
| 2026-05-05 13:09 | 52.80932 | 10.84941 | 27093 ft | 425 kts | 347° |
| 2026-05-05 13:10 | 52.83856 | 10.84289 | 26341 ft | 427 kts | 347° |
| 2026-05-05 13:10 | 52.86847 | 10.83636 | 25705 ft | 436 kts | 348° |
| 2026-05-05 13:10 | 52.89822 | 10.83019 | 25015 ft | 437 kts | 348° |
| 2026-05-05 13:10 | 52.92874 | 10.82410 | 24282 ft | 436 kts | 349° |
| 2026-05-05 13:11 | 52.95871 | 10.81817 | 23578 ft | 434 kts | 349° |
| 2026-05-05 13:11 | 52.98865 | 10.81222 | 22776 ft | 432 kts | 349° |
| 2026-05-05 13:11 | 53.01844 | 10.80627 | 21976 ft | 431 kts | 349° |
| 2026-05-05 13:11 | 53.04814 | 10.79966 | 21191 ft | 428 kts | 345° |
| 2026-05-05 13:12 | 53.07581 | 10.78393 | 20439 ft | 420 kts | 329° |
| 2026-05-05 13:12 | 53.09913 | 10.75647 | 20200 ft | 400 kts | 314° |
| 2026-05-05 13:12 | 53.11670 | 10.72203 | 19965 ft | 385 kts | 301° |
| 2026-05-05 13:12 | 53.13058 | 10.68434 | 19528 ft | 380 kts | 299° |
| 2026-05-05 13:13 | 53.14409 | 10.64673 | 19045 ft | 377 kts | 299° |
| 2026-05-05 13:13 | 53.15727 | 10.60954 | 18368 ft | 371 kts | 298° |
| 2026-05-05 13:13 | 53.17031 | 10.57254 | 17589 ft | 370 kts | 298° |
| 2026-05-05 13:13 | 53.18331 | 10.53562 | 17041 ft | 368 kts | 298° |
| 2026-05-05 13:14 | 53.19617 | 10.49913 | 16364 ft | 363 kts | 298° |
| 2026-05-05 13:14 | 53.20893 | 10.46290 | 15620 ft | 361 kts | 299° |
| 2026-05-05 13:14 | 53.22158 | 10.42695 | 14892 ft | 358 kts | 299° |
| 2026-05-05 13:14 | 53.23409 | 10.39126 | 14184 ft | 356 kts | 299° |
| 2026-05-05 13:15 | 53.24654 | 10.35568 | 13445 ft | 353 kts | 299° |
| 2026-05-05 13:15 | 53.25889 | 10.32042 | 12683 ft | 351 kts | 299° |
| 2026-05-05 13:15 | 53.27120 | 10.28532 | 12129 ft | 349 kts | 299° |
| 2026-05-05 13:15 | 53.28312 | 10.25135 | 11619 ft | 345 kts | 299° |
| 2026-05-05 13:16 | 53.29524 | 10.21680 | 11094 ft | 343 kts | 298° |
| 2026-05-05 13:16 | 53.30722 | 10.18261 | 10596 ft | 339 kts | 298° |
| 2026-05-05 13:16 | 53.31885 | 10.14930 | 10459 ft | 325 kts | 298° |
| 2026-05-05 13:16 | 53.33000 | 10.11732 | 10340 ft | 311 kts | 298° |
| 2026-05-05 13:17 | 53.34067 | 10.08667 | 10221 ft | 299 kts | 298° |
| 2026-05-05 13:17 | 53.35090 | 10.05717 | 10087 ft | 288 kts | 298° |
| 2026-05-05 13:17 | 53.36078 | 10.02867 | 9718 ft | 280 kts | 298° |
| 2026-05-05 13:17 | 53.37049 | 10.00060 | 9153 ft | 277 kts | 298° |
| 2026-05-05 13:18 | 53.38007 | 9.97283 | 8586 ft | 275 kts | 298° |
| 2026-05-05 13:18 | 53.38948 | 9.94556 | 8076 ft | 275 kts | 298° |
| 2026-05-05 13:18 | 53.39908 | 9.91777 | 7589 ft | 276 kts | 298° |
| 2026-05-05 13:18 | 53.40883 | 9.88953 | 6941 ft | 275 kts | 298° |
| 2026-05-05 13:19 | 53.41833 | 9.86189 | 6374 ft | 272 kts | 299° |
| 2026-05-05 13:19 | 53.42745 | 9.83531 | 6018 ft | 262 kts | 299° |
| 2026-05-05 13:19 | 53.43646 | 9.80902 | 5649 ft | 250 kts | 299° |
| 2026-05-05 13:19 | 53.44481 | 9.78462 | 5299 ft | 241 kts | 299° |
| 2026-05-05 13:20 | 53.45304 | 9.76061 | 4949 ft | 234 kts | 299° |
| 2026-05-05 13:20 | 53.46320 | 9.73893 | 4584 ft | 235 kts | 321° |
| 2026-05-05 13:20 | 53.47778 | 9.72815 | 4225 ft | 235 kts | 353° |
| 2026-05-05 13:20 | 53.49399 | 9.73033 | 3802 ft | 233 kts | 18° |
| 2026-05-05 13:21 | 53.50774 | 9.74299 | 3521 ft | 221 kts | 40° |
| 2026-05-05 13:21 | 53.51782 | 9.76168 | 3246 ft | 211 kts | 49° |
| 2026-05-05 13:21 | 53.52710 | 9.78029 | 2972 ft | 207 kts | 50° |
| 2026-05-05 13:21 | 53.53634 | 9.79879 | 2685 ft | 206 kts | 50° |
| 2026-05-05 13:22 | 53.54550 | 9.81717 | 2403 ft | 204 kts | 50° |
| 2026-05-05 13:22 | 53.55450 | 9.83527 | 2128 ft | 198 kts | 50° |
| 2026-05-05 13:22 | 53.56319 | 9.85274 | 1858 ft | 191 kts | 50° |
| 2026-05-05 13:22 | 53.57142 | 9.86930 | 1631 ft | 177 kts | 50° |
| 2026-05-05 13:23 | 53.57902 | 9.88460 | 1369 ft | 164 kts | 50° |
| 2026-05-05 13:23 | 53.58594 | 9.89853 | 1163 ft | 147 kts | 49° |
| 2026-05-05 13:23 | 53.59225 | 9.91124 | 947 ft | 137 kts | 50° |
| 2026-05-05 13:23 | 53.59827 | 9.92338 | 753 ft | 134 kts | 50° |
| 2026-05-05 13:24 | 53.60423 | 9.93535 | 576 ft | 133 kts | 50° |
| 2026-05-05 13:24 | 53.61011 | 9.94733 | 390 ft | 133 kts | 51° |
| 2026-05-05 13:24 | 53.61606 | 9.95930 | 201 ft | 132 kts | 50° |
| 2026-05-05 13:24 | 53.62192 | 9.97109 | 48 ft | 130 kts | 51° |
| 2026-05-05 13:25 | 53.62701 | 9.98145 | 42 ft | 91 kts | 50° |
| 2026-05-05 13:25 | 53.63004 | 9.98758 | 45 ft | 54 kts | 50° |
| 2026-05-05 13:25 | 53.63224 | 9.99203 | 47 ft | 44 kts | 50° |
| 2026-05-05 13:25 | 53.63403 | 9.99567 | 47 ft | 37 kts | 51° |
| 2026-05-05 13:26 | 53.63535 | 9.99832 | 50 ft | 21 kts | 50° |
| 2026-05-05 13:26 | 53.63601 | 9.99978 | 52 ft | 11 kts | 64° |
| 2026-05-05 13:26 | 53.63566 | 10.00079 | 51 ft | 10 kts | 141° |
| 2026-05-05 13:26 | 53.63536 | 10.00120 | 49 ft | 6 kts | 141° |
| 2026-05-05 13:27 | 53.63531 | 10.00127 | 49 ft | 0 kts | 141° |
| 2026-05-05 13:28 | 53.63523 | 10.00137 | 49 ft | 6 kts | 142° |
| 2026-05-05 13:28 | 53.63478 | 10.00198 | 48 ft | 8 kts | 146° |
| 2026-05-05 13:28 | 53.63410 | 10.00223 | 48 ft | 14 kts | 175° |
| 2026-05-05 13:28 | 53.63290 | 10.00238 | 48 ft | 18 kts | 175° |
| 2026-05-05 13:29 | 53.63170 | 10.00252 | 48 ft | 16 kts | 176° |
| 2026-05-05 13:29 | 53.63093 | 10.00262 | 48 ft | 7 kts | 176° |
| 2026-05-05 13:29 | 53.63076 | 10.00310 | 48 ft | 5 kts | 93° |
| 2026-05-05 13:29 | 53.63074 | 10.00356 | 48 ft | 3 kts | 93° |
| 2026-05-05 13:30 | 53.63074 | 10.00376 | 48 ft | 0 kts | 93° |